createdAt,value
2019-02-14T00:01:09.249Z,3.40
2019-02-14T00:03:36.758Z,3.70
2019-02-14T00:06:04.042Z,3.70
2019-02-14T00:08:31.282Z,3.50
2019-02-14T00:10:58.534Z,3.20
2019-02-14T00:13:25.806Z,3.37
2019-02-14T00:15:53.078Z,3.80
2019-02-14T00:18:20.603Z,3.13
2019-02-14T00:20:48.114Z,3.60
2019-02-14T00:23:15.381Z,3.40
2019-02-14T00:25:42.883Z,3.33
2019-02-14T00:28:10.240Z,3.27
2019-02-14T00:30:37.582Z,2.87
2019-02-14T00:33:04.833Z,3.37
2019-02-14T00:35:32.103Z,2.57
2019-02-14T00:37:59.371Z,2.97
2019-02-14T00:40:26.646Z,2.87
2019-02-14T00:42:54.138Z,2.90
2019-02-14T00:45:21.401Z,3.10
2019-02-14T00:47:48.646Z,2.87
2019-02-14T00:50:15.920Z,3.17
2019-02-14T00:52:43.198Z,3.17
2019-02-14T00:55:10.448Z,3.03
2019-02-14T00:57:37.694Z,3.13
2019-02-14T01:00:06.502Z,4.00
2019-02-14T01:02:33.760Z,3.13
2019-02-14T01:05:01.027Z,3.97
2019-02-14T01:07:28.311Z,3.53
2019-02-14T01:09:55.554Z,3.63
2019-02-14T01:12:22.822Z,2.97
2019-02-14T01:14:50.056Z,3.67
2019-02-14T01:17:17.326Z,3.50
2019-02-14T01:19:44.591Z,3.70
2019-02-14T01:22:11.838Z,3.83
2019-02-14T01:24:39.113Z,4.60
2019-02-14T01:27:06.656Z,4.17
2019-02-14T01:29:33.903Z,3.63
2019-02-14T01:32:01.177Z,4.60
2019-02-14T01:34:28.426Z,3.80
2019-02-14T01:36:55.715Z,4.20
2019-02-14T01:39:22.955Z,3.87
2019-02-14T01:41:50.200Z,3.90
2019-02-14T01:44:17.742Z,4.93
2019-02-14T01:46:45.015Z,3.90
2019-02-14T01:49:12.534Z,4.70
2019-02-14T01:51:39.816Z,4.80
2019-02-14T01:54:07.185Z,4.37
2019-02-14T01:56:34.430Z,4.60
2019-02-14T01:59:01.674Z,5.00
2019-02-14T02:01:28.963Z,4.50
2019-02-14T02:03:56.204Z,3.97
2019-02-14T02:06:23.478Z,4.30
2019-02-14T02:08:50.719Z,4.10
2019-02-14T02:11:18.002Z,4.20
2019-02-14T02:13:45.238Z,5.03
2019-02-14T02:16:12.514Z,3.97
2019-02-14T02:18:39.830Z,6.30
2019-02-14T02:21:07.097Z,3.77
2019-02-14T02:23:34.399Z,5.03
2019-02-14T02:26:01.682Z,4.67
2019-02-14T02:28:29.038Z,5.20
2019-02-14T02:30:56.570Z,4.83
2019-02-14T02:33:23.855Z,4.03
2019-02-14T02:35:59.996Z,4.93
2019-02-14T02:38:20.439Z,4.90
2019-02-14T02:40:47.683Z,4.50
2019-02-14T02:43:14.995Z,4.70
2019-02-14T02:45:42.287Z,4.87
2019-02-14T02:48:09.560Z,4.20
2019-02-14T02:50:36.801Z,5.03
2019-02-14T02:53:04.081Z,4.50
2019-02-14T02:55:31.341Z,4.37
2019-02-14T02:57:58.616Z,4.40
2019-02-14T03:00:25.960Z,4.00
2019-02-14T03:02:53.207Z,4.70
2019-02-14T03:05:20.479Z,5.17
2019-02-14T03:07:47.753Z,5.10
2019-02-14T03:10:15.061Z,4.23
2019-02-14T03:12:42.342Z,4.50
2019-02-14T03:15:10.787Z,4.67
2019-02-14T03:17:38.032Z,4.50
2019-02-14T03:20:06.975Z,4.37
2019-02-14T03:22:34.220Z,4.23
2019-02-14T03:25:01.489Z,4.50
2019-02-14T03:27:28.733Z,4.40
2019-02-14T03:29:56.008Z,4.27
2019-02-14T03:32:23.259Z,4.70
2019-02-14T03:34:50.597Z,4.30
2019-02-14T03:37:17.837Z,4.50
2019-02-14T03:39:45.174Z,3.93
2019-02-14T03:42:12.440Z,3.87
2019-02-14T03:44:39.677Z,4.50
2019-02-14T03:47:06.949Z,4.10
2019-02-14T03:49:34.252Z,3.93
2019-02-14T03:52:01.546Z,4.07
2019-02-14T03:54:28.830Z,3.83
2019-02-14T03:56:56.077Z,3.60
2019-02-14T03:59:23.317Z,3.87
2019-02-14T04:01:50.598Z,3.50
2019-02-14T04:04:17.842Z,4.00
2019-02-14T04:06:45.081Z,3.53
2019-02-14T04:09:12.354Z,3.40
2019-02-14T04:11:39.635Z,3.63
2019-02-14T04:14:06.911Z,3.60
2019-02-14T04:16:34.154Z,3.07
2019-02-14T04:19:01.398Z,3.10
2019-02-14T04:21:28.741Z,3.30
2019-02-14T04:23:55.981Z,3.67
2019-02-14T04:26:23.270Z,2.80
2019-02-14T04:28:50.514Z,2.93
2019-02-14T04:31:18.010Z,3.10
2019-02-14T04:33:45.282Z,3.00
2019-02-14T04:36:12.530Z,2.50
2019-02-14T04:38:39.806Z,3.40
2019-02-14T04:41:07.073Z,3.20
2019-02-14T04:43:34.337Z,3.10
2019-02-14T04:46:01.605Z,3.00
2019-02-14T04:48:28.879Z,2.70
2019-02-14T04:50:56.141Z,2.60
2019-02-14T04:53:23.660Z,2.60
2019-02-14T04:55:50.922Z,2.93
2019-02-14T04:58:18.204Z,2.93
2019-02-14T05:00:45.445Z,3.07
2019-02-14T05:03:12.719Z,2.70
2019-02-14T05:05:39.963Z,2.80
2019-02-14T05:08:07.246Z,2.60
2019-02-14T05:10:34.491Z,2.67
2019-02-14T05:13:01.743Z,2.40
2019-02-14T05:15:29.017Z,2.77
2019-02-14T05:17:56.346Z,2.57
2019-02-14T05:20:23.883Z,2.77
2019-02-14T05:22:51.205Z,2.53
2019-02-14T05:25:18.474Z,2.90
2019-02-14T05:27:45.781Z,2.63
2019-02-14T05:30:14.026Z,2.63
2019-02-14T05:32:41.274Z,3.00
2019-02-14T05:35:08.550Z,3.20
2019-02-14T05:37:35.796Z,2.30
2019-02-14T05:40:03.330Z,2.67
2019-02-14T05:42:30.614Z,2.70
2019-02-14T05:44:57.977Z,3.70
2019-02-14T05:47:25.232Z,2.80
2019-02-14T05:49:52.546Z,2.77
2019-02-14T05:52:19.810Z,2.17
2019-02-14T05:54:47.057Z,3.03
2019-02-14T05:57:14.326Z,2.60
2019-02-14T05:59:41.571Z,2.40
2019-02-14T06:02:08.845Z,2.67
2019-02-14T06:04:36.355Z,2.20
2019-02-14T06:07:03.630Z,2.93
2019-02-14T06:09:30.872Z,2.43
2019-02-14T06:11:58.146Z,2.60
2019-02-14T06:14:25.392Z,2.40
2019-02-14T06:16:52.666Z,2.20
2019-02-14T06:19:19.905Z,2.57
2019-02-14T06:21:47.226Z,2.70
2019-02-14T06:24:14.745Z,2.67
2019-02-14T06:26:41.989Z,2.30
2019-02-14T06:29:09.276Z,2.80
2019-02-14T06:31:36.513Z,2.67
2019-02-14T06:34:04.030Z,3.10
2019-02-14T06:36:31.583Z,2.60
2019-02-14T06:38:58.861Z,2.70
2019-02-14T06:41:26.099Z,3.10
2019-02-14T06:43:53.408Z,3.50
2019-02-14T06:46:20.716Z,2.57
2019-02-14T06:48:47.988Z,2.13
2019-02-14T06:51:15.266Z,2.00
2019-02-14T06:53:42.778Z,2.40
2019-02-14T06:56:10.059Z,2.07
2019-02-14T06:58:37.300Z,2.27
2019-02-14T07:01:04.563Z,2.20
2019-02-14T07:03:31.833Z,2.50
2019-02-14T07:05:59.199Z,2.40
2019-02-14T07:08:26.470Z,2.07
2019-02-14T07:10:53.709Z,2.03
2019-02-14T07:13:20.989Z,1.67
2019-02-14T07:15:48.260Z,2.30
2019-02-14T07:18:15.502Z,2.33
2019-02-14T07:20:42.808Z,2.23
2019-02-14T07:23:10.160Z,2.23
2019-02-14T07:25:37.445Z,2.40
2019-02-14T07:28:04.997Z,2.03
2019-02-14T07:30:32.556Z,2.33
2019-02-14T07:32:59.819Z,2.00
2019-02-14T07:35:27.092Z,2.53
2019-02-14T07:37:54.364Z,2.47
2019-02-14T07:40:21.677Z,2.23
2019-02-14T07:42:48.952Z,2.73
2019-02-14T07:45:16.932Z,2.60
2019-02-14T07:47:44.201Z,2.70
2019-02-14T07:50:12.330Z,3.07
2019-02-14T07:52:39.817Z,2.60
2019-02-14T07:55:08.219Z,2.87
2019-02-14T07:57:35.550Z,2.90
2019-02-14T08:00:03.566Z,3.10
2019-02-14T08:02:30.842Z,3.00
2019-02-14T08:04:58.086Z,3.73
2019-02-14T08:07:25.363Z,2.90
2019-02-14T08:09:52.607Z,3.60
2019-02-14T08:12:19.869Z,2.73
2019-02-14T08:14:47.146Z,2.40
2019-02-14T08:17:14.685Z,2.27
2019-02-14T08:19:41.934Z,7.53
2019-02-14T08:22:09.208Z,5.40
2019-02-14T08:24:36.457Z,5.50
2019-02-14T08:27:03.725Z,11.97
2019-02-14T08:29:30.977Z,11.43
2019-02-14T08:31:58.266Z,11.13
2019-02-14T08:34:25.514Z,9.70
2019-02-14T08:36:52.791Z,10.23
2019-02-14T08:39:20.065Z,8.93
2019-02-14T08:41:47.558Z,6.90
2019-02-14T08:44:14.834Z,4.00
2019-02-14T08:46:42.106Z,2.43
2019-02-14T08:49:09.622Z,2.17
2019-02-14T08:51:37.156Z,1.60
2019-02-14T08:54:04.677Z,1.53
2019-02-14T08:56:31.969Z,1.60
2019-02-14T08:58:59.214Z,1.40
2019-02-14T09:01:26.743Z,1.50
2019-02-14T09:03:53.992Z,1.73
2019-02-14T09:06:21.267Z,1.40
2019-02-14T09:08:48.511Z,1.73
2019-02-14T09:11:15.770Z,2.00
2019-02-14T09:13:43.036Z,2.10
2019-02-14T09:16:10.307Z,2.13
2019-02-14T09:18:37.552Z,1.53
2019-02-14T09:21:04.817Z,1.47
2019-02-14T09:23:32.306Z,1.70
2019-02-14T09:25:59.837Z,1.80
2019-02-14T09:28:27.104Z,2.17
2019-02-14T09:30:54.384Z,2.03
2019-02-14T09:33:21.629Z,2.57
2019-02-14T09:35:48.894Z,2.30
2019-02-14T09:38:16.205Z,1.80
2019-02-14T09:40:43.494Z,1.70
2019-02-14T09:43:10.740Z,1.70
2019-02-14T09:45:38.078Z,1.93
2019-02-14T09:48:05.322Z,1.93
2019-02-14T09:50:32.594Z,1.90
2019-02-14T09:52:59.839Z,1.60
2019-02-14T09:55:27.123Z,2.40
2019-02-14T09:57:54.485Z,2.00
2019-02-14T10:00:21.812Z,2.10
2019-02-14T10:02:49.320Z,3.10
2019-02-14T10:05:16.582Z,2.80
2019-02-14T10:07:43.885Z,3.90
2019-02-14T10:10:12.362Z,5.00
2019-02-14T10:12:39.615Z,6.30
2019-02-14T10:15:07.847Z,5.93
2019-02-14T10:17:35.120Z,6.90
2019-02-14T10:20:02.375Z,6.93
2019-02-14T10:22:30.100Z,7.40
2019-02-14T10:24:57.639Z,5.60
2019-02-14T10:27:25.099Z,6.10
2019-02-14T10:29:52.418Z,6.30
2019-02-14T10:32:19.699Z,6.40
2019-02-14T10:34:47.239Z,13.73
2019-02-14T10:37:14.485Z,14.53
2019-02-14T10:39:41.998Z,12.70
2019-02-14T10:42:09.606Z,5.67
2019-02-14T10:44:36.862Z,27.43
2019-02-14T10:47:04.406Z,32.77
2019-02-14T10:49:31.954Z,42.50
2019-02-14T10:51:59.532Z,59.17
2019-02-14T10:54:26.819Z,27.57
2019-02-14T10:56:54.074Z,36.67
2019-02-14T10:59:21.343Z,24.93
2019-02-14T11:01:48.885Z,15.67
2019-02-14T11:04:16.121Z,19.77
2019-02-14T11:06:43.407Z,16.20
2019-02-14T11:09:10.920Z,14.60
2019-02-14T11:11:38.202Z,13.07
2019-02-14T11:14:05.612Z,8.57
2019-02-14T11:16:32.891Z,6.93
2019-02-14T11:19:00.144Z,7.60
2019-02-14T11:21:27.421Z,7.00
2019-02-14T11:23:54.673Z,5.80
2019-02-14T11:26:21.947Z,4.60
2019-02-14T11:28:49.238Z,4.47
2019-02-14T11:31:16.489Z,6.30
2019-02-14T11:33:43.774Z,6.00
2019-02-14T11:36:11.299Z,6.27
2019-02-14T11:38:40.666Z,4.50
2019-02-14T11:41:07.541Z,5.00
2019-02-14T11:43:34.813Z,4.80
2019-02-14T11:46:02.083Z,4.53
2019-02-14T11:48:29.330Z,4.30
2019-02-14T11:50:56.610Z,5.63
2019-02-14T11:53:23.858Z,5.77
2019-02-14T11:55:51.110Z,6.17
2019-02-14T11:58:18.390Z,5.33
2019-02-14T12:00:45.638Z,5.17
2019-02-14T12:03:13.190Z,5.37
2019-02-14T12:05:40.439Z,5.20
2019-02-14T12:08:09.453Z,4.60
2019-02-14T12:10:36.673Z,5.30
2019-02-14T12:13:03.952Z,5.67
2019-02-14T12:15:31.490Z,4.37
2019-02-14T12:17:58.725Z,2.80
2019-02-14T12:20:26.005Z,2.90
2019-02-14T12:22:53.349Z,2.20
2019-02-14T12:25:22.143Z,1.80
2019-02-14T12:27:49.410Z,1.40
2019-02-14T12:30:16.653Z,1.10
2019-02-14T12:32:43.921Z,0.93
2019-02-14T12:35:11.506Z,1.60
2019-02-14T12:37:38.773Z,1.90
2019-02-14T12:40:07.824Z,1.63
2019-02-14T12:42:35.094Z,1.73
2019-02-14T12:45:02.346Z,2.27
2019-02-14T12:47:30.247Z,1.93
2019-02-14T12:49:57.560Z,1.90
2019-02-14T12:52:24.853Z,1.50
2019-02-14T12:54:52.374Z,2.10
2019-02-14T12:57:19.654Z,1.60
2019-02-14T12:59:46.905Z,1.90
2019-02-14T13:02:14.433Z,1.67
2019-02-14T13:04:42.106Z,1.50
2019-02-14T13:07:09.347Z,1.90
2019-02-14T13:09:36.591Z,1.83
2019-02-14T13:12:03.870Z,2.00
2019-02-14T13:14:31.117Z,2.10
2019-02-14T13:16:58.391Z,2.17
2019-02-14T13:19:25.657Z,1.80
2019-02-14T13:21:52.940Z,2.00
2019-02-14T13:24:20.221Z,1.90
2019-02-14T13:26:47.650Z,2.20
2019-02-14T13:29:15.181Z,2.23
2019-02-14T13:31:42.449Z,2.10
2019-02-14T13:34:09.777Z,2.30
2019-02-14T13:36:37.048Z,2.43
2019-02-14T13:39:04.933Z,1.97
2019-02-14T13:41:32.245Z,2.13
2019-02-14T13:43:59.531Z,7.43
2019-02-14T13:46:26.832Z,5.50
2019-02-14T13:48:54.150Z,6.87
2019-02-14T13:51:21.399Z,6.33
2019-02-14T13:53:48.662Z,5.20
2019-02-14T13:56:15.935Z,3.73
2019-02-14T13:58:43.184Z,2.87
2019-02-14T14:01:10.458Z,2.50
2019-02-14T14:03:37.734Z,2.93
2019-02-14T14:06:05.083Z,3.40
2019-02-14T14:08:32.342Z,4.07
2019-02-14T14:10:59.613Z,4.10
2019-02-14T14:13:26.861Z,4.00
2019-02-14T14:15:54.134Z,3.67
2019-02-14T14:18:21.655Z,3.57
2019-02-14T14:20:48.932Z,2.90
2019-02-14T14:23:16.431Z,3.50
2019-02-14T14:25:43.708Z,3.60
2019-02-14T14:28:10.966Z,3.80
2019-02-14T14:30:38.216Z,3.20
2019-02-14T14:33:05.485Z,3.33
2019-02-14T14:35:32.739Z,3.27
2019-02-14T14:38:00.004Z,2.97
2019-02-14T14:40:27.526Z,2.97
2019-02-14T14:42:56.436Z,3.10
2019-02-14T14:45:31.026Z,3.10
2019-02-14T14:47:58.562Z,3.00
2019-02-14T14:50:25.806Z,3.17
2019-02-14T14:52:53.081Z,2.70
2019-02-14T14:55:20.327Z,3.30
2019-02-14T14:57:47.597Z,3.23
2019-02-14T15:00:14.901Z,2.70
2019-02-14T15:02:42.240Z,3.67
2019-02-14T15:05:10.404Z,2.27
2019-02-14T15:07:37.678Z,2.80
2019-02-14T15:10:05.490Z,2.90
2019-02-14T15:12:32.768Z,2.70
2019-02-14T15:15:00.001Z,2.70
2019-02-14T15:17:27.280Z,2.83
2019-02-14T15:19:54.812Z,2.70
2019-02-14T15:22:22.053Z,2.70
2019-02-14T15:24:49.326Z,2.50
2019-02-14T15:27:16.606Z,2.37
2019-02-14T15:29:43.846Z,2.70
2019-02-14T15:32:11.095Z,2.50
2019-02-14T15:34:38.619Z,3.00
2019-02-14T15:37:05.895Z,2.40
2019-02-14T15:39:33.142Z,2.53
2019-02-14T15:42:00.409Z,2.80
2019-02-14T15:44:27.651Z,2.67
2019-02-14T15:46:54.927Z,2.83
2019-02-14T15:49:23.120Z,3.20
2019-02-14T15:51:51.422Z,3.73
2019-02-14T15:54:18.702Z,3.50
2019-02-14T15:56:45.941Z,3.50
2019-02-14T15:59:13.190Z,3.03
2019-02-14T16:01:42.693Z,2.37
2019-02-14T16:04:09.958Z,3.00
2019-02-14T16:06:37.498Z,2.83
2019-02-14T16:09:05.337Z,2.87
2019-02-14T16:11:34.005Z,2.20
2019-02-14T16:14:01.577Z,2.83
2019-02-14T16:16:28.837Z,2.73
2019-02-14T16:18:56.086Z,2.77
2019-02-14T16:21:23.423Z,2.57
2019-02-14T16:23:51.379Z,2.60
2019-02-14T16:26:19.711Z,2.63
2019-02-14T16:28:47.018Z,2.80
2019-02-14T16:31:14.542Z,3.20
2019-02-14T16:33:41.822Z,2.70
2019-02-14T16:36:09.062Z,2.50
2019-02-14T16:38:37.196Z,2.57
2019-02-14T16:41:04.491Z,2.60
2019-02-14T16:43:31.997Z,2.53
2019-02-14T16:45:59.244Z,2.23
2019-02-14T16:48:26.523Z,2.33
2019-02-14T16:50:53.807Z,2.07
2019-02-14T16:53:21.094Z,2.20
2019-02-14T16:55:48.366Z,2.63
2019-02-14T16:58:15.610Z,2.90
2019-02-14T17:00:42.883Z,2.97
2019-02-14T17:03:10.134Z,2.60
2019-02-14T17:05:37.382Z,3.20
2019-02-14T17:08:04.665Z,2.33
2019-02-14T17:10:37.012Z,2.20
2019-02-14T17:13:00.901Z,1.97
2019-02-14T17:15:28.290Z,2.17
2019-02-14T17:17:55.737Z,2.40
2019-02-14T17:20:23.237Z,2.30
2019-02-14T17:22:50.506Z,1.90
2019-02-14T17:25:17.750Z,2.10
2019-02-14T17:27:45.104Z,2.00
2019-02-14T17:30:12.701Z,2.13
2019-02-14T17:32:40.010Z,2.40
2019-02-14T17:35:07.459Z,2.07
2019-02-14T17:37:34.735Z,1.90
2019-02-14T17:40:02.002Z,1.80
2019-02-14T17:42:29.282Z,2.20
2019-02-14T17:44:56.522Z,1.80
2019-02-14T17:47:23.797Z,1.87
2019-02-14T17:49:51.336Z,2.00
2019-02-14T17:52:18.579Z,1.90
2019-02-14T17:54:45.846Z,1.53
2019-02-14T17:57:13.086Z,1.70
2019-02-14T17:59:40.618Z,1.80
2019-02-14T18:02:07.865Z,1.87
2019-02-14T18:04:35.138Z,1.77
2019-02-14T18:07:02.458Z,1.90
2019-02-14T18:09:29.970Z,1.57
2019-02-14T18:11:57.261Z,1.33
2019-02-14T18:14:24.497Z,1.63
2019-02-14T18:16:51.746Z,1.53
2019-02-14T18:19:19.268Z,1.77
2019-02-14T18:21:46.614Z,1.20
2019-02-14T18:24:13.858Z,1.20
2019-02-14T18:26:41.133Z,1.17
2019-02-14T18:29:08.411Z,1.40
2019-02-14T18:31:35.677Z,1.30
2019-02-14T18:34:03.181Z,1.03
2019-02-14T18:36:30.529Z,1.20
2019-02-14T18:38:57.778Z,1.30
2019-02-14T18:41:25.458Z,1.10
2019-02-14T18:43:52.829Z,1.03
2019-02-14T18:46:20.079Z,1.27
2019-02-14T18:48:47.363Z,0.83
2019-02-14T18:51:14.606Z,1.10
2019-02-14T18:53:41.846Z,0.90
2019-02-14T18:56:09.118Z,1.07
2019-02-14T18:58:36.394Z,2.27
2019-02-14T19:01:03.702Z,1.40
2019-02-14T19:03:31.060Z,1.60
2019-02-14T19:05:58.306Z,1.57
2019-02-14T19:08:25.571Z,1.37
2019-02-14T19:10:52.814Z,2.17
2019-02-14T19:13:20.098Z,1.63
2019-02-14T19:15:47.426Z,1.60
2019-02-14T19:18:14.695Z,1.53
2019-02-14T19:20:42.229Z,1.70
2019-02-14T19:23:09.806Z,2.00
2019-02-14T19:25:37.346Z,2.10
2019-02-14T19:28:04.591Z,1.90
2019-02-14T19:30:31.871Z,2.10
2019-02-14T19:32:59.163Z,1.67
2019-02-14T19:35:26.401Z,1.80
2019-02-14T19:37:53.935Z,1.70
2019-02-14T19:40:21.179Z,1.60
2019-02-14T19:42:48.461Z,1.80
2019-02-14T19:45:16.409Z,1.73
2019-02-14T19:47:43.902Z,1.23
2019-02-14T19:50:12.205Z,1.77
2019-02-14T19:52:39.593Z,1.30
2019-02-14T19:55:08.749Z,1.30
2019-02-14T19:57:36.337Z,1.07
2019-02-14T20:00:05.584Z,1.20
2019-02-14T20:02:32.858Z,1.53
2019-02-14T20:05:00.308Z,1.07
2019-02-14T20:07:27.899Z,1.37
2019-02-14T20:09:55.475Z,1.40
2019-02-14T20:12:22.742Z,1.30
2019-02-14T20:14:50.021Z,1.00
2019-02-14T20:17:17.266Z,1.10
2019-02-14T20:19:44.808Z,1.30
2019-02-14T20:22:12.678Z,1.10
2019-02-14T20:24:40.702Z,0.90
2019-02-14T20:27:08.255Z,1.00
2019-02-14T20:29:35.494Z,0.80
2019-02-14T20:32:02.777Z,0.90
2019-02-14T20:34:30.297Z,1.10
2019-02-14T20:36:57.836Z,0.93
2019-02-14T20:39:25.105Z,1.10
2019-02-14T20:41:52.634Z,0.80
2019-02-14T20:44:19.883Z,1.03
2019-02-14T20:46:47.137Z,1.00
2019-02-14T20:49:14.482Z,0.90
2019-02-14T20:51:41.759Z,1.00
2019-02-14T20:54:09.014Z,0.80
2019-02-14T20:56:36.285Z,0.90
2019-02-14T20:59:03.676Z,1.10
2019-02-14T21:01:30.950Z,0.90
2019-02-14T21:03:58.226Z,1.10
2019-02-14T21:06:25.479Z,1.00
2019-02-14T21:08:53.003Z,0.90
2019-02-14T21:11:20.264Z,0.90
2019-02-14T21:13:47.506Z,1.00
2019-02-14T21:16:15.041Z,1.00
2019-02-14T21:18:42.302Z,0.93
2019-02-14T21:21:09.816Z,1.00
2019-02-14T21:23:37.161Z,1.07
2019-02-14T21:26:04.497Z,1.10
2019-02-14T21:28:32.068Z,1.10
2019-02-14T21:30:59.346Z,1.40
2019-02-14T21:33:26.604Z,1.30
2019-02-14T21:35:54.022Z,1.70
2019-02-14T21:38:21.414Z,1.50
2019-02-14T21:40:48.689Z,1.73
2019-02-14T21:43:16.025Z,2.00
2019-02-14T21:45:43.359Z,2.30
2019-02-14T21:48:10.857Z,2.67
2019-02-14T21:50:38.174Z,2.23
2019-02-14T21:53:05.414Z,2.73
2019-02-14T21:55:32.700Z,2.97
2019-02-14T21:58:03.922Z,2.60
2019-02-14T22:00:29.137Z,2.80
2019-02-14T22:02:56.468Z,2.47
2019-02-14T22:05:26.001Z,3.07
2019-02-14T22:07:52.918Z,2.70
2019-02-14T22:10:20.203Z,3.10
2019-02-14T22:12:47.457Z,2.97
2019-02-14T22:15:16.025Z,3.03
2019-02-14T22:17:43.292Z,2.60
2019-02-14T22:20:10.639Z,2.70
2019-02-14T22:22:37.960Z,2.83
2019-02-14T22:25:06.775Z,2.40
2019-02-14T22:27:34.050Z,2.30
2019-02-14T22:30:01.326Z,2.73
2019-02-14T22:32:28.848Z,2.60
2019-02-14T22:34:56.109Z,2.97
2019-02-14T22:37:23.358Z,2.70
2019-02-14T22:39:50.618Z,3.03
2019-02-14T22:42:18.122Z,3.27
2019-02-14T22:44:45.399Z,2.70
2019-02-14T22:47:12.642Z,3.07
2019-02-14T22:49:39.918Z,3.63
2019-02-14T22:52:07.164Z,2.87
2019-02-14T22:54:34.426Z,3.40
2019-02-14T22:57:01.705Z,3.47
2019-02-14T22:59:28.950Z,3.30
2019-02-14T23:01:56.202Z,3.17
2019-02-14T23:04:23.744Z,3.60
2019-02-14T23:06:51.240Z,3.30
2019-02-14T23:09:18.948Z,3.67
2019-02-14T23:11:46.188Z,3.47
2019-02-14T23:14:13.469Z,3.50
2019-02-14T23:16:40.710Z,3.50
2019-02-14T23:19:08.202Z,3.87
2019-02-14T23:21:35.558Z,3.13
2019-02-14T23:24:02.793Z,3.60
2019-02-14T23:26:30.310Z,3.67
2019-02-14T23:28:57.882Z,3.90
2019-02-14T23:31:25.151Z,3.33
2019-02-14T23:33:52.430Z,3.30
2019-02-14T23:36:19.672Z,4.07
2019-02-14T23:38:47.217Z,3.43
2019-02-14T23:41:14.722Z,3.40
2019-02-14T23:43:42.002Z,4.10
2019-02-14T23:46:09.277Z,4.57
2019-02-14T23:48:36.514Z,3.27
2019-02-14T23:51:03.810Z,3.70
2019-02-14T23:53:31.133Z,3.73
2019-02-14T23:55:58.657Z,3.80
2019-02-14T23:58:25.931Z,3.80
